TFM - Tactical Decision Aid
ID: Runway Winds: CIG/VIS Threshold:

KBFF - Scottsbluff/Western, NE, US

Updated at: 1125 UTC 23 Jun 2021
Latest TAF at: 0545 UTC 23 Jun 2021

TAF Board

Time1053Z 23/12Z 23/13Z 23/14Z 23/15Z 23/16Z 23/17Z 23/18Z 23/19Z 23/20Z 23/21Z 23/22Z 23/23Z 24/00Z>>
Type OBS PRVL PRVL PRVL PRVL PRVL PRVL PRVL PRVL PRVL PRVL PRVL PRVL PRVL
VIS 10 >6 >6 >6 >6 >6 >6 >6 >6 >6 >6 >6 >6 >6
CIG -- -- -- -- -- -- -- -- -- -- -- 100 100 100
Cover CLR SKC SKC SKC FEW FEW FEW FEW FEW FEW FEW BKN BKN BKN
FltCat VFR VFR VFR VFR VFR VFR VFR VFR VFR VFR VFR VFR VFR VFR
WX -- -- -- -- -- -- -- -- -- -- -- VCSH VCSH VCSH
WDir 140 90 90 90 280 280 280 280 280 280 280 290 290 290
WSpd 5 8 8 8 10 10 10 10 10 10 10 11 11 11
WGst -- -- -- -- -- -- -- -- -- -- -- -- -- --

TDA Impact Legend

  None Marginal Slight Moderate High
Visibility (sm) >5 3≤X≤5 2≤X<3 0.5≤X<2 <0.5
Ceiling (100 ft) >30 10≤X≤30 6≤X<10 2≤X<6 <2
Wind Speed (kt) <15 15≤X<25 25≤X<30 ≥30
Wind Gust (kt) <15 15≤X<25 25≤X<35 ≥35
Weather No Wx Reported VCTS -TS,-FZRA TS,FZRA +TS,+FZRA
TAF
KBFF 230545Z 2306/2406 09008KT P6SM SKC
  FM231500 28010KT P6SM FEW150
  FM232200 29011KT P6SM VCSH BKN100
  FM240030 10009KT P6SM BKN120


METAR
KBFF 231053Z AUTO 14005KT 10SM CLR 16/12 A2982 RMK AO2 SLP042 T01610122
KBFF 230953Z AUTO 10006KT 10SM CLR 17/13 A2982 RMK AO2 SLP043 T01720128
KBFF 230853Z AUTO 08005KT 10SM CLR 18/12 A2982 RMK AO2 SLP043 T01780122 51004

Radar Display
Forecast Discussion